Main page
METAR-TAF:

METAR-TAF

Airports :

Caen, France

Caen – Carpiquet Airport

latitude: 49-11N, longitude: 000-27W, elevation: 78 m

Current weather observation

The report was made 30 minutes ago, at 11:30 UTC
Wind 14 kt from the West/Southwest
Temperature 12°C
Humidity 76%
Pressure 1021 hPa
Visibility 10 km or more
Broken clouds at a height of 3000 ft

METAR: LFRK 201130Z AUTO 24014KT 9999 BKN030 12/08 Q1021 TEMPO 24015G25KT BKN012

Time: 13:00 (12:00 UTC)

Forecast

The report was made 1 hour and 0 minutes ago, at 11:00 UTC
Forecast valid from 20 at 12 UTC to 20 at 21 UTC
Wind 13 kt from the Southwest
Visibility 10 km or more
Broken clouds at a height of 3000 ft
Temporary
from 20 at 12 UTC to 20 at 18 UTC
Wind 15 kt from the West/Southwest with gusts up to 25 kt
Broken clouds at a height of 1200 ft

TAF: LFRK 201100Z 2012/2021 22013KT 9999 BKN030 TEMPO 2012/2018 24015G25KT BKN012

Weather observations and forecasts of more than 4000 airports (METAR and TAF reports).

The available stations are represented by yellow and red dots on the map.

Hover mouse over dot to see the name of the station.

Then click to see weather observations and forecasts.

To change the map : click on the green buttons with a black cross to zoom in, on the green button with a dash to zoom out, or on the green arrows for adjacent maps.


METAR-TAF: